createdAt,value
2022-11-13T00:00:11.693Z,0.7
2022-11-13T00:01:11.697Z,1.2
2022-11-13T00:02:11.726Z,0.7
2022-11-13T00:03:11.746Z,0
2022-11-13T00:04:11.717Z,0.7
2022-11-13T00:05:11.727Z,0
2022-11-13T00:06:11.725Z,0
2022-11-13T00:07:11.883Z,0.5
2022-11-13T00:08:11.734Z,0
2022-11-13T00:09:11.711Z,0.5
2022-11-13T00:10:11.721Z,0.9
2022-11-13T00:11:11.729Z,0
2022-11-13T00:12:11.723Z,1.1
2022-11-13T00:13:11.739Z,0
2022-11-13T00:14:11.725Z,0.7
2022-11-13T00:15:11.727Z,0
2022-11-13T00:16:11.728Z,0.5
2022-11-13T00:17:11.739Z,0
2022-11-13T00:18:11.759Z,0.8
2022-11-13T00:19:11.750Z,0
2022-11-13T00:20:11.777Z,0
2022-11-13T00:21:11.756Z,0
2022-11-13T00:22:11.757Z,0
2022-11-13T00:23:11.892Z,0
2022-11-13T00:24:11.760Z,0
2022-11-13T00:25:11.789Z,0
2022-11-13T00:26:11.808Z,0.8
2022-11-13T00:27:11.791Z,0.8
2022-11-13T00:28:11.806Z,1.1
2022-11-13T00:29:11.796Z,0
2022-11-13T00:30:14.996Z,0.5
2022-11-13T00:31:11.817Z,0
2022-11-13T00:32:11.898Z,0.6
2022-11-13T00:33:11.852Z,0
2022-11-13T00:34:33.539Z,0.5
2022-11-13T00:35:11.801Z,0
2022-11-13T00:36:11.938Z,0
2022-11-13T00:37:11.834Z,0
2022-11-13T00:38:11.832Z,0
2022-11-13T00:39:11.919Z,0
2022-11-13T00:40:11.804Z,0
2022-11-13T00:41:11.829Z,0
2022-11-13T00:42:11.841Z,0
2022-11-13T00:43:11.839Z,0
2022-11-13T00:44:11.876Z,0
2022-11-13T00:45:11.858Z,1
2022-11-13T00:46:11.831Z,0
2022-11-13T00:47:11.835Z,0
2022-11-13T00:48:11.863Z,0
2022-11-13T00:49:11.848Z,0.6
2022-11-13T00:50:11.829Z,0.5
2022-11-13T00:51:11.837Z,0
2022-11-13T00:52:11.831Z,0.5
2022-11-13T00:53:16.882Z,0
2022-11-13T00:54:11.833Z,0.6
2022-11-13T00:55:12.100Z,0
2022-11-13T00:56:11.858Z,0
2022-11-13T00:57:11.856Z,0
2022-11-13T00:58:11.884Z,0
2022-11-13T00:59:11.932Z,0
2022-11-13T01:00:11.863Z,0
2022-11-13T01:01:11.960Z,0
2022-11-13T01:02:11.870Z,1.1
2022-11-13T01:03:11.894Z,0
2022-11-13T01:04:11.882Z,1
2022-11-13T01:05:11.887Z,0.8
2022-11-13T01:06:11.877Z,0
2022-11-13T01:07:11.945Z,0.6
2022-11-13T01:08:11.937Z,0
2022-11-13T01:09:11.902Z,0
2022-11-13T01:10:11.924Z,0
2022-11-13T01:11:12.051Z,1.1
2022-11-13T01:12:11.933Z,0.5
2022-11-13T01:13:11.924Z,0.7
2022-11-13T01:14:11.912Z,0.8
2022-11-13T01:15:11.915Z,0
2022-11-13T01:16:11.921Z,0
2022-11-13T01:17:11.953Z,0
2022-11-13T01:18:11.972Z,0
2022-11-13T01:19:11.954Z,0
2022-11-13T01:20:11.959Z,0
2022-11-13T01:21:11.962Z,0.5
2022-11-13T01:22:11.991Z,0.8
2022-11-13T01:23:11.975Z,0.6
2022-11-13T01:24:11.952Z,0
2022-11-13T01:25:11.954Z,0.5
2022-11-13T01:26:11.954Z,0
2022-11-13T01:27:12.088Z,0.7
2022-11-13T01:28:11.961Z,2.1
2022-11-13T01:29:11.955Z,1
2022-11-13T01:30:11.979Z,1
2022-11-13T01:31:11.979Z,0.8
2022-11-13T01:32:11.988Z,0
2022-11-13T01:33:12.003Z,0.5
2022-11-13T01:34:12.014Z,0
2022-11-13T01:35:11.983Z,0
2022-11-13T01:36:11.979Z,0.5
2022-11-13T01:37:11.994Z,0
2022-11-13T01:38:12.003Z,0
2022-11-13T01:39:12.053Z,0.5
2022-11-13T01:40:12.001Z,0.5
2022-11-13T01:41:12.024Z,0
2022-11-13T01:42:12.009Z,0
2022-11-13T01:43:12.139Z,0.6
2022-11-13T01:44:12.014Z,1
2022-11-13T01:45:12.010Z,0
2022-11-13T01:46:12.005Z,0.9
2022-11-13T01:47:12.008Z,0.8
2022-11-13T01:48:12.022Z,0.7
2022-11-13T01:49:12.005Z,0.5
2022-11-13T01:50:12.024Z,0
2022-11-13T01:51:12.048Z,0.6
2022-11-13T01:52:12.030Z,0
2022-11-13T01:53:12.095Z,0
2022-11-13T01:54:12.041Z,0.9
2022-11-13T01:55:12.060Z,0.8
2022-11-13T01:56:12.087Z,1.1
2022-11-13T01:57:12.112Z,0
2022-11-13T01:58:12.071Z,0
2022-11-13T01:59:12.208Z,0.5
2022-11-13T02:00:12.082Z,0.6
2022-11-13T02:01:12.151Z,0
2022-11-13T02:02:12.123Z,0
2022-11-13T02:03:12.099Z,0.6
2022-11-13T02:04:12.082Z,0.5
2022-11-13T02:05:12.069Z,0
2022-11-13T02:06:12.074Z,0.8
2022-11-13T02:07:12.101Z,0
2022-11-13T02:08:12.073Z,0
2022-11-13T02:09:12.115Z,0.8
2022-11-13T02:10:12.073Z,0.5
2022-11-13T02:11:12.094Z,0
2022-11-13T02:12:12.121Z,0
2022-11-13T02:13:12.121Z,0
2022-11-13T02:14:12.097Z,0
2022-11-13T02:15:12.221Z,0
2022-11-13T02:16:12.100Z,0
2022-11-13T02:17:12.139Z,0.8
2022-11-13T02:18:12.116Z,0
2022-11-13T02:19:12.146Z,0
2022-11-13T02:20:12.102Z,0
2022-11-13T02:21:12.113Z,0
2022-11-13T02:22:12.097Z,0
2022-11-13T02:23:12.137Z,0
2022-11-13T02:24:12.133Z,0
2022-11-13T02:25:12.132Z,0
2022-11-13T02:26:12.121Z,0
2022-11-13T02:27:12.155Z,0.9
2022-11-13T02:28:12.131Z,0.5
2022-11-13T02:29:12.138Z,0.5
2022-11-13T02:30:16.018Z,0
2022-11-13T02:31:12.266Z,0
2022-11-13T02:32:12.124Z,0
2022-11-13T02:33:12.188Z,0
2022-11-13T02:34:12.138Z,0
2022-11-13T02:35:12.162Z,0
2022-11-13T02:36:12.143Z,0
2022-11-13T02:37:12.158Z,0
2022-11-13T02:38:12.152Z,0
2022-11-13T02:39:12.164Z,0
2022-11-13T02:40:12.162Z,0
2022-11-13T02:41:12.158Z,0
2022-11-13T02:42:12.162Z,0
2022-11-13T02:43:12.193Z,0
2022-11-13T02:44:12.152Z,0
2022-11-13T02:45:12.163Z,0
2022-11-13T02:46:12.168Z,0
2022-11-13T02:47:12.337Z,0
2022-11-13T02:48:12.175Z,0
2022-11-13T02:49:12.253Z,0
2022-11-13T02:50:12.215Z,0
2022-11-13T02:51:12.210Z,0
2022-11-13T02:52:12.253Z,0
2022-11-13T02:53:12.209Z,0
2022-11-13T02:54:16.649Z,0
2022-11-13T02:55:12.202Z,0
2022-11-13T02:56:12.214Z,0
2022-11-13T02:57:12.236Z,0
2022-11-13T02:58:12.209Z,0
2022-11-13T02:59:12.207Z,0
2022-11-13T03:00:13.954Z,0.5
2022-11-13T03:01:12.251Z,0
2022-11-13T03:02:12.199Z,0.5
2022-11-13T03:03:12.362Z,0.5
2022-11-13T03:04:12.196Z,0
2022-11-13T03:05:13.462Z,0.7
2022-11-13T03:06:12.223Z,0
2022-11-13T03:07:12.284Z,0
2022-11-13T03:08:12.221Z,0
2022-11-13T03:09:12.266Z,0
2022-11-13T03:10:12.213Z,0
2022-11-13T03:11:12.264Z,0
2022-11-13T03:12:12.234Z,0
2022-11-13T03:13:12.262Z,0
2022-11-13T03:14:12.227Z,0
2022-11-13T03:15:12.283Z,0
2022-11-13T03:16:12.230Z,0
2022-11-13T03:17:12.261Z,0
2022-11-13T03:18:12.271Z,0
2022-11-13T03:19:12.390Z,0
2022-11-13T03:20:12.292Z,0
2022-11-13T03:21:12.299Z,0
2022-11-13T03:22:12.257Z,0
2022-11-13T03:23:12.303Z,0
2022-11-13T03:24:12.260Z,0.8
2022-11-13T03:25:12.291Z,0.5
2022-11-13T03:26:12.261Z,0.5
2022-11-13T03:27:12.317Z,0
2022-11-13T03:28:12.273Z,0
2022-11-13T03:29:12.274Z,0
2022-11-13T03:30:12.272Z,0
2022-11-13T03:31:12.280Z,0
2022-11-13T03:32:12.268Z,0
2022-11-13T03:33:12.305Z,0.8
2022-11-13T03:34:12.278Z,0.6
2022-11-13T03:35:12.426Z,0.7
2022-11-13T03:36:12.271Z,0
2022-11-13T03:37:12.304Z,0
2022-11-13T03:38:12.298Z,0
2022-11-13T03:39:12.329Z,0.6
2022-11-13T03:40:12.290Z,0.7
2022-11-13T03:41:12.339Z,0.6
2022-11-13T03:42:12.302Z,0.5
2022-11-13T03:43:12.341Z,0
2022-11-13T03:44:12.311Z,0.8
2022-11-13T03:45:12.322Z,0
2022-11-13T03:46:12.312Z,0.7
2022-11-13T03:47:12.369Z,0.7
2022-11-13T03:48:12.356Z,0.6
2022-11-13T03:49:12.380Z,0
2022-11-13T03:50:12.347Z,0.8
2022-11-13T03:51:12.478Z,0
2022-11-13T03:52:12.338Z,0
2022-11-13T03:53:12.385Z,0
2022-11-13T03:54:12.345Z,0
2022-11-13T03:55:12.383Z,0
2022-11-13T03:56:12.361Z,0.5
2022-11-13T03:57:12.386Z,0
2022-11-13T03:58:12.371Z,0
2022-11-13T03:59:12.412Z,0
2022-11-13T04:00:12.365Z,0
2022-11-13T04:01:12.417Z,0
2022-11-13T04:02:12.366Z,0
2022-11-13T04:03:12.429Z,0
2022-11-13T04:04:12.383Z,0
2022-11-13T04:05:12.408Z,0
2022-11-13T04:06:12.372Z,0
2022-11-13T04:07:12.622Z,0
2022-11-13T04:08:12.393Z,0.6
2022-11-13T04:09:12.393Z,0.8
2022-11-13T04:10:12.382Z,0.9
2022-11-13T04:11:12.411Z,0.5
2022-11-13T04:12:12.394Z,0.9
2022-11-13T04:13:12.453Z,0.6
2022-11-13T04:14:12.391Z,0
2022-11-13T04:15:12.396Z,1.1
2022-11-13T04:16:12.403Z,1.2
2022-11-13T04:17:12.444Z,0.9
2022-11-13T04:18:12.423Z,1
2022-11-13T04:19:12.440Z,0.6
2022-11-13T04:20:12.403Z,0
2022-11-13T04:21:12.416Z,0.8
2022-11-13T04:22:12.445Z,0.5
2022-11-13T04:23:12.734Z,0
2022-11-13T04:24:12.426Z,1.1
2022-11-13T04:25:12.441Z,0
2022-11-13T04:26:12.416Z,0.6
2022-11-13T04:27:12.436Z,0.6
2022-11-13T04:28:12.433Z,0.7
2022-11-13T04:29:12.470Z,0
2022-11-13T04:30:12.428Z,0.8
2022-11-13T04:31:12.451Z,0
2022-11-13T04:32:12.437Z,0.6
2022-11-13T04:33:12.465Z,0
2022-11-13T04:34:12.431Z,0
2022-11-13T04:35:12.454Z,0
2022-11-13T04:36:12.444Z,1
2022-11-13T04:37:12.483Z,0.8
2022-11-13T04:38:12.458Z,0.8
2022-11-13T04:39:12.602Z,0
2022-11-13T04:40:12.488Z,1.3
2022-11-13T04:41:12.493Z,0.5
2022-11-13T04:42:12.464Z,0.8
2022-11-13T04:43:12.473Z,0
2022-11-13T04:44:12.481Z,0
2022-11-13T04:45:12.505Z,0
2022-11-13T04:46:12.511Z,0.5
2022-11-13T04:47:12.538Z,0.5
2022-11-13T04:48:12.498Z,0
2022-11-13T04:49:12.532Z,0
2022-11-13T04:50:12.493Z,0
2022-11-13T04:51:12.518Z,0
2022-11-13T04:52:12.503Z,0
2022-11-13T04:53:12.577Z,0
2022-11-13T04:54:12.486Z,0.8
2022-11-13T04:55:12.564Z,0.5
2022-11-13T04:56:12.499Z,0
2022-11-13T04:57:12.577Z,0
2022-11-13T04:58:12.536Z,0
2022-11-13T04:59:12.576Z,0
2022-11-13T05:00:12.528Z,0
2022-11-13T05:01:12.530Z,0
2022-11-13T05:02:12.527Z,0
2022-11-13T05:03:12.576Z,0
2022-11-13T05:04:12.598Z,0
2022-11-13T05:05:12.525Z,0
2022-11-13T05:06:12.567Z,0
2022-11-13T05:07:12.657Z,0.5
2022-11-13T05:08:12.539Z,0.5
2022-11-13T05:09:12.578Z,0.8
2022-11-13T05:10:12.563Z,0
2022-11-13T05:11:12.695Z,0
2022-11-13T05:12:12.559Z,0.6
2022-11-13T05:13:12.588Z,1.8
2022-11-13T05:14:12.551Z,0
2022-11-13T05:15:12.592Z,0
2022-11-13T05:16:12.568Z,0
2022-11-13T05:17:12.609Z,0
2022-11-13T05:18:12.582Z,0.8
2022-11-13T05:19:12.608Z,0.8
2022-11-13T05:20:12.628Z,1.2
2022-11-13T05:21:12.608Z,0.6
2022-11-13T05:22:12.587Z,0
2022-11-13T05:23:12.638Z,0.8
2022-11-13T05:24:12.607Z,0
2022-11-13T05:25:12.653Z,0
2022-11-13T05:26:12.598Z,0
2022-11-13T05:27:16.968Z,0
2022-11-13T05:28:12.639Z,0
2022-11-13T05:29:12.664Z,0
2022-11-13T05:30:12.651Z,0
2022-11-13T05:31:12.640Z,0
2022-11-13T05:32:12.659Z,0
2022-11-13T05:33:12.641Z,0
2022-11-13T05:34:12.646Z,0
2022-11-13T05:35:12.651Z,0.8
2022-11-13T05:36:12.672Z,0.8
2022-11-13T05:37:12.691Z,0
2022-11-13T05:38:12.648Z,0.5
2022-11-13T05:39:12.686Z,0
2022-11-13T05:40:12.646Z,0.6
2022-11-13T05:41:12.684Z,0
2022-11-13T05:42:12.652Z,0
2022-11-13T05:43:12.813Z,0
2022-11-13T05:44:12.669Z,0.7
2022-11-13T05:45:12.728Z,0
2022-11-13T05:46:12.656Z,0
2022-11-13T05:47:12.697Z,0.9
2022-11-13T05:48:12.670Z,0.5
2022-11-13T05:49:12.753Z,0
2022-11-13T05:50:12.707Z,0.8
2022-11-13T05:51:12.714Z,0
2022-11-13T05:52:12.693Z,0
2022-11-13T05:53:12.717Z,0
2022-11-13T05:54:12.691Z,0
2022-11-13T05:55:12.717Z,0
2022-11-13T05:56:12.699Z,0
2022-11-13T05:57:12.734Z,0
2022-11-13T05:58:12.731Z,0
2022-11-13T05:59:12.884Z,0
2022-11-13T06:00:12.703Z,0
2022-11-13T06:01:12.753Z,0.7
2022-11-13T06:02:12.786Z,0.6
2022-11-13T06:03:12.771Z,0
2022-11-13T06:04:12.723Z,0
2022-11-13T06:05:12.747Z,0.5
2022-11-13T06:06:12.715Z,0.5
2022-11-13T06:07:12.789Z,0
2022-11-13T06:08:12.774Z,0
2022-11-13T06:09:12.768Z,0
2022-11-13T06:10:12.795Z,0
2022-11-13T06:11:12.759Z,0
2022-11-13T06:12:12.779Z,0
2022-11-13T06:13:12.799Z,0
2022-11-13T06:14:12.803Z,0
2022-11-13T06:15:12.894Z,0
2022-11-13T06:16:12.775Z,0
2022-11-13T06:17:12.804Z,0
2022-11-13T06:18:12.793Z,0
2022-11-13T06:19:12.839Z,0
2022-11-13T06:20:12.826Z,0
2022-11-13T06:21:13.028Z,0
2022-11-13T06:22:12.818Z,0
2022-11-13T06:23:12.869Z,0
2022-11-13T06:24:12.838Z,0
2022-11-13T06:25:12.812Z,0
2022-11-13T06:26:12.816Z,0
2022-11-13T06:27:12.821Z,0
2022-11-13T06:28:12.827Z,0.8
2022-11-13T06:29:12.931Z,0
2022-11-13T06:30:12.844Z,0.8
2022-11-13T06:31:12.949Z,0
2022-11-13T06:32:12.817Z,0
2022-11-13T06:33:12.836Z,1.1
2022-11-13T06:34:12.840Z,0
2022-11-13T06:35:12.932Z,0.5
2022-11-13T06:36:12.839Z,0.6
2022-11-13T06:37:12.825Z,0
2022-11-13T06:38:12.866Z,0.9
2022-11-13T06:39:12.878Z,0.6
2022-11-13T06:40:12.837Z,1.1
2022-11-13T06:41:12.844Z,0.6
2022-11-13T06:42:12.861Z,1
2022-11-13T06:43:12.888Z,1.1
2022-11-13T06:44:12.886Z,0
2022-11-13T06:45:12.915Z,0.6
2022-11-13T06:46:12.857Z,0.6
2022-11-13T06:47:13.020Z,0.8
2022-11-13T06:48:12.903Z,0
2022-11-13T06:49:12.927Z,0
2022-11-13T06:50:12.894Z,0
2022-11-13T06:51:12.922Z,0.7
2022-11-13T06:52:12.957Z,0.5
2022-11-13T06:53:12.972Z,0
2022-11-13T06:54:12.929Z,0
2022-11-13T06:55:12.962Z,0
2022-11-13T06:56:12.945Z,0.9
2022-11-13T06:57:12.953Z,0.9
2022-11-13T06:58:12.941Z,0
2022-11-13T06:59:12.952Z,0.5
2022-11-13T07:00:12.941Z,0
2022-11-13T07:01:13.060Z,0
2022-11-13T07:02:12.949Z,0
2022-11-13T07:03:13.112Z,0
2022-11-13T07:04:12.950Z,0
2022-11-13T07:05:12.967Z,0.5
2022-11-13T07:06:12.950Z,0.7
2022-11-13T07:07:12.998Z,1
2022-11-13T07:08:12.956Z,0.9
2022-11-13T07:09:13.012Z,0.8
2022-11-13T07:10:12.961Z,0.8
2022-11-13T07:11:12.995Z,0
2022-11-13T07:12:12.997Z,0
2022-11-13T07:13:12.990Z,0.5
2022-11-13T07:14:12.977Z,0
2022-11-13T07:15:12.992Z,0.8
2022-11-13T07:16:17.215Z,0.8
2022-11-13T07:17:13.000Z,0.8
2022-11-13T07:18:12.974Z,0
2022-11-13T07:19:13.112Z,0
2022-11-13T07:20:12.973Z,0.9
2022-11-13T07:21:12.995Z,0.6
2022-11-13T07:22:12.974Z,0
2022-11-13T07:23:12.993Z,0
2022-11-13T07:24:16.875Z,0
2022-11-13T07:25:13.179Z,0
2022-11-13T07:26:13.017Z,0.5
2022-11-13T07:27:13.015Z,0.8
2022-11-13T07:28:13.025Z,0.5
2022-11-13T07:29:13.013Z,0
2022-11-13T07:30:13.014Z,1
2022-11-13T07:31:13.019Z,0
2022-11-13T07:32:13.021Z,0.6
2022-11-13T07:33:13.022Z,0
2022-11-13T07:34:13.017Z,0.8
2022-11-13T07:35:13.126Z,1
2022-11-13T07:36:13.027Z,1.1
2022-11-13T07:37:13.024Z,1
2022-11-13T07:38:13.020Z,0.9
2022-11-13T07:39:13.021Z,0.6
2022-11-13T07:40:13.032Z,0
2022-11-13T07:41:13.019Z,0.7
2022-11-13T07:42:13.029Z,0
2022-11-13T07:43:13.030Z,0
2022-11-13T07:44:21.994Z,0
2022-11-13T07:45:13.030Z,0.6
2022-11-13T07:46:13.069Z,0.8
2022-11-13T07:47:13.040Z,0
2022-11-13T07:48:13.050Z,0
2022-11-13T07:49:13.057Z,0.7
2022-11-13T07:50:13.061Z,0.5
2022-11-13T07:51:13.173Z,0.5
2022-11-13T07:52:13.052Z,0.8
2022-11-13T07:53:13.059Z,0.8
2022-11-13T07:54:13.061Z,0.6
2022-11-13T07:55:13.058Z,0
2022-11-13T07:56:13.060Z,0
2022-11-13T07:57:13.062Z,0
2022-11-13T07:58:13.073Z,0.5
2022-11-13T07:59:13.073Z,0
2022-11-13T08:00:13.073Z,0
2022-11-13T08:01:13.092Z,0
2022-11-13T08:02:13.066Z,0
2022-11-13T08:03:13.125Z,0
2022-11-13T08:04:13.080Z,0
2022-11-13T08:05:13.083Z,0
2022-11-13T08:06:13.086Z,0
2022-11-13T08:07:13.373Z,0
2022-11-13T08:08:13.141Z,0
2022-11-13T08:09:13.124Z,0.7
2022-11-13T08:10:13.093Z,0.6
2022-11-13T08:11:13.122Z,0.6
2022-11-13T08:12:13.101Z,0
2022-11-13T08:13:13.129Z,0
2022-11-13T08:14:13.141Z,0
2022-11-13T08:15:13.619Z,0
2022-11-13T08:16:13.126Z,0
2022-11-13T08:17:13.132Z,0
2022-11-13T08:18:13.135Z,0
2022-11-13T08:19:13.128Z,0.7
2022-11-13T08:20:13.119Z,0.9
2022-11-13T08:21:14.978Z,0
2022-11-13T08:22:13.139Z,0
2022-11-13T08:23:13.306Z,0.6
2022-11-13T08:24:13.151Z,0.7
2022-11-13T08:25:13.163Z,0.5
2022-11-13T08:26:13.138Z,0
2022-11-13T08:27:13.193Z,0
2022-11-13T08:28:13.596Z,0.8
2022-11-13T08:29:13.144Z,1.1
2022-11-13T08:30:13.151Z,0.8
2022-11-13T08:31:13.144Z,0
2022-11-13T08:32:13.159Z,0
2022-11-13T08:33:13.178Z,0
2022-11-13T08:34:13.154Z,0
2022-11-13T08:35:17.463Z,0.5
2022-11-13T08:36:13.156Z,0
2022-11-13T08:37:13.196Z,0.8
2022-11-13T08:38:13.168Z,0.5
2022-11-13T08:39:13.303Z,0.6
2022-11-13T08:40:13.162Z,1.1
2022-11-13T08:41:13.203Z,0.7
2022-11-13T08:42:13.171Z,0
2022-11-13T08:43:13.192Z,0.9
2022-11-13T08:44:13.184Z,0.8
2022-11-13T08:45:13.191Z,0
2022-11-13T08:46:13.176Z,0
2022-11-13T08:47:13.225Z,1.1
2022-11-13T08:48:13.224Z,0.6
2022-11-13T08:49:13.208Z,0.8
2022-11-13T08:50:13.197Z,0
2022-11-13T08:51:13.197Z,0.7
2022-11-13T08:52:13.188Z,0
2022-11-13T08:53:13.234Z,0
2022-11-13T08:54:13.201Z,0
2022-11-13T08:55:13.345Z,0
2022-11-13T08:56:13.197Z,0
2022-11-13T08:57:13.262Z,0
2022-11-13T08:58:13.220Z,0
2022-11-13T08:59:13.268Z,0
2022-11-13T09:00:13.223Z,0.6
2022-11-13T09:01:13.227Z,0
2022-11-13T09:02:13.223Z,0.7
2022-11-13T09:03:13.261Z,0
2022-11-13T09:04:13.273Z,0
2022-11-13T09:05:13.274Z,1.1
2022-11-13T09:06:13.236Z,0
2022-11-13T09:07:13.360Z,0
2022-11-13T09:08:13.236Z,0
2022-11-13T09:09:13.261Z,0
2022-11-13T09:10:13.232Z,0
2022-11-13T09:11:13.379Z,0
2022-11-13T09:12:13.244Z,0
2022-11-13T09:13:13.289Z,0
2022-11-13T09:14:13.257Z,0.5
2022-11-13T09:15:13.294Z,0.5
2022-11-13T09:16:13.280Z,0
2022-11-13T09:17:13.285Z,0
2022-11-13T09:18:13.280Z,0
2022-11-13T09:19:13.293Z,0
2022-11-13T09:20:14.086Z,0
2022-11-13T09:21:13.338Z,0
2022-11-13T09:22:13.288Z,1
2022-11-13T09:23:13.304Z,0.5
2022-11-13T09:24:13.284Z,0.8
2022-11-13T09:25:13.320Z,0.8
2022-11-13T09:26:13.283Z,1.1
2022-11-13T09:27:13.323Z,0.9
2022-11-13T09:28:13.292Z,0
2022-11-13T09:29:13.298Z,0
2022-11-13T09:30:13.290Z,0
2022-11-13T09:31:13.302Z,0.7
2022-11-13T09:32:13.283Z,0.8
2022-11-13T09:33:13.330Z,1
2022-11-13T09:34:13.353Z,0.7
2022-11-13T09:35:13.337Z,0
2022-11-13T09:36:13.302Z,1.1
2022-11-13T09:37:13.335Z,0.7
2022-11-13T09:38:13.319Z,0.9
2022-11-13T09:39:13.342Z,2.1
2022-11-13T09:40:13.318Z,1
2022-11-13T09:41:13.346Z,0.5
2022-11-13T09:42:13.332Z,0.6
2022-11-13T09:43:13.467Z,0
2022-11-13T09:44:13.320Z,0.5
2022-11-13T09:45:13.334Z,0
2022-11-13T09:46:13.320Z,1.8
2022-11-13T09:47:13.342Z,0.8
2022-11-13T09:48:13.358Z,1.5
2022-11-13T09:49:13.354Z,1.3
2022-11-13T09:50:13.343Z,1.9
2022-11-13T09:51:13.373Z,2.2
2022-11-13T09:52:13.337Z,2.6
2022-11-13T09:53:13.376Z,0.5
2022-11-13T09:54:13.369Z,1
2022-11-13T09:55:13.501Z,1.9
2022-11-13T09:56:13.590Z,2.5
2022-11-13T09:57:13.369Z,1.2
2022-11-13T09:58:13.368Z,0.8
2022-11-13T09:59:13.483Z,0.6
2022-11-13T10:00:13.355Z,1.2
2022-11-13T10:01:13.442Z,1
2022-11-13T10:02:13.363Z,0
2022-11-13T10:03:13.454Z,0
2022-11-13T10:04:14.537Z,0.6
2022-11-13T10:05:13.610Z,0.8
2022-11-13T10:06:13.518Z,0
2022-11-13T10:07:13.520Z,0
2022-11-13T10:08:13.401Z,0
2022-11-13T10:09:13.392Z,0.6
2022-11-13T10:10:13.387Z,0
2022-11-13T10:11:13.387Z,0
2022-11-13T10:12:13.410Z,0
2022-11-13T10:13:13.619Z,0.7
2022-11-13T10:14:13.516Z,0
2022-11-13T10:15:13.546Z,0
2022-11-13T10:16:13.617Z,0.5
2022-11-13T10:17:13.580Z,0.9
2022-11-13T10:18:13.413Z,0.9
2022-11-13T10:19:13.606Z,0.9
2022-11-13T10:20:13.404Z,1.5
2022-11-13T10:21:13.444Z,2.4
2022-11-13T10:22:32.011Z,1
2022-11-13T10:23:13.436Z,0
2022-11-13T10:24:14.489Z,0.6
2022-11-13T10:25:13.446Z,0.6
2022-11-13T10:26:13.586Z,2.1
2022-11-13T10:27:13.439Z,1.8
2022-11-13T10:28:35.314Z,1.5
2022-11-13T10:29:13.477Z,0.9
2022-11-13T10:30:13.429Z,1.3
2022-11-13T10:31:13.562Z,0.5
2022-11-13T10:32:13.449Z,1.3
2022-11-13T10:33:13.511Z,2.4
2022-11-13T10:34:13.589Z,0
2022-11-13T10:35:13.465Z,2.2
2022-11-13T10:36:13.457Z,1
2022-11-13T10:37:13.488Z,0
2022-11-13T10:38:13.578Z,0.8
2022-11-13T10:39:13.588Z,0.8
2022-11-13T10:40:13.457Z,0.5
2022-11-13T10:41:13.487Z,0
2022-11-13T10:42:13.471Z,0
2022-11-13T10:43:13.472Z,0
2022-11-13T10:44:13.468Z,0
2022-11-13T10:45:13.480Z,0
2022-11-13T10:46:13.485Z,0
2022-11-13T10:47:13.625Z,0
2022-11-13T10:48:13.503Z,0.5
2022-11-13T10:49:13.586Z,0
2022-11-13T10:50:13.483Z,0
2022-11-13T10:51:13.515Z,0
2022-11-13T10:52:13.504Z,0.8
2022-11-13T10:53:13.494Z,0.7
2022-11-13T10:54:13.493Z,0.9
2022-11-13T10:55:13.512Z,0.8
2022-11-13T10:56:13.498Z,0.6
2022-11-13T10:57:13.531Z,0.8
2022-11-13T10:58:13.517Z,0
2022-11-13T10:59:13.570Z,0
2022-11-13T11:00:13.501Z,0.5
2022-11-13T11:01:13.595Z,0.5
2022-11-13T11:02:13.526Z,0.6
2022-11-13T11:03:13.675Z,0
2022-11-13T11:04:13.619Z,0
2022-11-13T11:05:13.559Z,0
2022-11-13T11:06:13.531Z,0
2022-11-13T11:07:20.014Z,0
2022-11-13T11:08:13.555Z,1.5
2022-11-13T11:09:13.562Z,1.2
2022-11-13T11:10:13.569Z,0.9
2022-11-13T11:11:13.633Z,0.5
2022-11-13T11:12:13.542Z,1
2022-11-13T11:13:13.540Z,0.6
2022-11-13T11:14:13.532Z,0.7
2022-11-13T11:15:13.542Z,1.3
2022-11-13T11:16:13.582Z,0
2022-11-13T11:17:13.573Z,0
2022-11-13T11:18:13.564Z,0.5
2022-11-13T11:19:13.672Z,0.8
2022-11-13T11:20:13.570Z,1
2022-11-13T11:21:13.578Z,0.9
2022-11-13T11:22:13.565Z,0.8
2022-11-13T11:23:13.607Z,1.6
2022-11-13T11:24:13.570Z,0
2022-11-13T11:25:13.574Z,0
2022-11-13T11:26:13.571Z,0
2022-11-13T11:27:13.601Z,0.8
2022-11-13T11:28:13.572Z,0.9
2022-11-13T11:29:13.583Z,2.4
2022-11-13T11:30:13.610Z,1.5
2022-11-13T11:31:13.622Z,1.7
2022-11-13T11:32:13.608Z,0.6
2022-11-13T11:33:13.621Z,0.7
2022-11-13T11:34:13.587Z,1.1
2022-11-13T11:35:13.731Z,2.1
2022-11-13T11:36:13.594Z,1.5
2022-11-13T11:37:13.630Z,1.1
2022-11-13T11:38:13.626Z,1.9
2022-11-13T11:39:13.647Z,1.3
2022-11-13T11:40:13.598Z,0.6
2022-11-13T11:41:16.760Z,0.8
2022-11-13T11:42:13.610Z,0.5
2022-11-13T11:43:13.636Z,0.8
2022-11-13T11:44:13.620Z,0
2022-11-13T11:45:13.655Z,1
2022-11-13T11:46:13.622Z,0.5
2022-11-13T11:47:13.690Z,1
2022-11-13T11:48:13.641Z,2.4
2022-11-13T11:49:13.658Z,1.1
2022-11-13T11:50:13.638Z,1.2
2022-11-13T11:51:13.780Z,1.5
2022-11-13T11:52:13.659Z,0.6
2022-11-13T11:53:13.706Z,2.1
2022-11-13T11:54:13.653Z,0.9
2022-11-13T11:55:13.676Z,2.4
2022-11-13T11:56:13.647Z,1.8
2022-11-13T11:57:13.677Z,3.4
2022-11-13T11:58:13.644Z,2.6
2022-11-13T11:59:13.681Z,2.4
2022-11-13T12:00:13.655Z,1
2022-11-13T12:01:13.676Z,2.2
2022-11-13T12:02:13.718Z,2.7
2022-11-13T12:03:13.674Z,1.9
2022-11-13T12:04:13.670Z,0.8
2022-11-13T12:05:18.675Z,3.6
2022-11-13T12:06:13.678Z,2.4
2022-11-13T12:07:13.870Z,2.7
2022-11-13T12:08:13.689Z,3
2022-11-13T12:09:13.709Z,1.3
2022-11-13T12:10:13.721Z,2.4
2022-11-13T12:11:13.732Z,0.7
2022-11-13T12:12:13.698Z,0.8
2022-11-13T12:13:13.713Z,1.1
2022-11-13T12:14:13.720Z,2.4
2022-11-13T12:15:13.743Z,2.4
2022-11-13T12:16:13.707Z,3.8
2022-11-13T12:17:17.288Z,2.3
2022-11-13T12:18:13.701Z,2.4
2022-11-13T12:19:13.721Z,2.9
2022-11-13T12:20:13.789Z,2.7
2022-11-13T12:21:13.721Z,1
2022-11-13T12:22:13.714Z,3.2
2022-11-13T12:23:13.835Z,3.2
2022-11-13T12:24:13.715Z,3
2022-11-13T12:25:13.779Z,2.1
2022-11-13T12:26:13.749Z,3.8
2022-11-13T12:27:13.769Z,3.4
2022-11-13T12:28:13.742Z,2.2
2022-11-13T12:29:13.753Z,1.1
2022-11-13T12:30:13.749Z,4.6
2022-11-13T12:31:13.778Z,2
2022-11-13T12:32:13.775Z,0.9
2022-11-13T12:33:13.813Z,1.9
2022-11-13T12:34:13.743Z,0.5
2022-11-13T12:35:13.788Z,0.5
2022-11-13T12:36:13.780Z,2.4
2022-11-13T12:37:13.805Z,0
2022-11-13T12:38:13.756Z,0
2022-11-13T12:39:13.883Z,0
2022-11-13T12:40:13.756Z,1.3
2022-11-13T12:41:13.798Z,1.6
2022-11-13T12:42:13.772Z,2.4
2022-11-13T12:43:13.803Z,2.9
2022-11-13T12:44:13.770Z,3
2022-11-13T12:45:13.807Z,1
2022-11-13T12:46:13.779Z,1.8
2022-11-13T12:47:13.833Z,1.5
2022-11-13T12:48:13.807Z,2.4
2022-11-13T12:49:13.834Z,1.6
2022-11-13T12:50:13.795Z,3
2022-11-13T12:51:13.800Z,2.5
2022-11-13T12:52:13.797Z,1.9
2022-11-13T12:53:13.807Z,4.4
2022-11-13T12:54:13.807Z,3.4
2022-11-13T12:55:13.964Z,2.3
2022-11-13T12:56:13.814Z,2.4
2022-11-13T12:57:13.855Z,1.5
2022-11-13T12:58:13.813Z,1
2022-11-13T12:59:30.226Z,2.5
2022-11-13T13:00:13.815Z,3.2
2022-11-13T13:01:13.872Z,2.4
2022-11-13T13:02:13.831Z,3.5
2022-11-13T13:03:13.871Z,3.4
2022-11-13T13:04:13.869Z,2.6
2022-11-13T13:05:13.860Z,0.8
2022-11-13T13:06:13.840Z,1.2
2022-11-13T13:07:13.912Z,0.8
2022-11-13T13:08:13.854Z,0.9
2022-11-13T13:09:13.884Z,1.1
2022-11-13T13:10:13.866Z,2.4
2022-11-13T13:11:14.046Z,3.4
2022-11-13T13:12:13.889Z,3
2022-11-13T13:13:14.828Z,2.9
2022-11-13T13:14:13.863Z,2.7
2022-11-13T13:15:13.895Z,2.2
2022-11-13T13:16:13.886Z,3.2
2022-11-13T13:17:13.932Z,3.1
2022-11-13T13:18:13.883Z,3.1
2022-11-13T13:19:13.892Z,2.6
2022-11-13T13:20:13.875Z,1.5
2022-11-13T13:21:13.888Z,2.7
2022-11-13T13:22:13.887Z,1.3
2022-11-13T13:23:13.898Z,1.3
2022-11-13T13:24:13.881Z,1.9
2022-11-13T13:25:14.595Z,3.1
2022-11-13T13:26:13.893Z,0.6
2022-11-13T13:27:14.040Z,3.2
2022-11-13T13:28:13.902Z,3
2022-11-13T13:29:13.945Z,2.3
2022-11-13T13:30:13.931Z,3.4
2022-11-13T13:31:13.974Z,2.9
2022-11-13T13:32:19.381Z,3.1
2022-11-13T13:33:13.936Z,3.8
2022-11-13T13:34:13.913Z,2.1
2022-11-13T13:35:13.947Z,1.9
2022-11-13T13:36:13.904Z,3.4
2022-11-13T13:37:13.955Z,3.8
2022-11-13T13:38:13.912Z,2.4
2022-11-13T13:39:13.936Z,2.5
2022-11-13T13:40:13.933Z,0.8
2022-11-13T13:41:13.930Z,4
2022-11-13T13:42:13.983Z,3.6
2022-11-13T13:43:14.050Z,2.7
2022-11-13T13:44:13.930Z,2.4
2022-11-13T13:45:13.961Z,2.5
2022-11-13T13:46:13.938Z,3.2
2022-11-13T13:47:13.988Z,3.4
2022-11-13T13:48:13.974Z,2.4
2022-11-13T13:49:13.954Z,0.5
2022-11-13T13:50:13.941Z,2.4
2022-11-13T13:51:13.956Z,2.2
2022-11-13T13:52:13.956Z,2.4
2022-11-13T13:53:13.959Z,1.4
2022-11-13T13:54:13.952Z,1.6
2022-11-13T13:55:13.956Z,2.4
2022-11-13T13:56:13.952Z,1.9
2022-11-13T13:57:13.992Z,0.8
2022-11-13T13:58:13.953Z,1.9
2022-11-13T13:59:14.115Z,1
2022-11-13T14:00:13.952Z,0.6
2022-11-13T14:01:18.687Z,0
2022-11-13T14:02:14.023Z,0
2022-11-13T14:03:13.967Z,0.9
2022-11-13T14:04:13.960Z,0.9
2022-11-13T14:05:13.975Z,0
2022-11-13T14:06:13.949Z,2.4
2022-11-13T14:07:14.034Z,0.5
2022-11-13T14:08:13.959Z,1
2022-11-13T14:09:13.967Z,0
2022-11-13T14:10:13.962Z,2.4
2022-11-13T14:11:14.004Z,1
2022-11-13T14:12:13.977Z,0.8
2022-11-13T14:13:13.977Z,0
2022-11-13T14:14:13.970Z,0
2022-11-13T14:15:13.999Z,0
2022-11-13T14:16:14.033Z,0.7